sensor_id;sensor_type;location;lat;lon;timestamp;pressure;altitude;pressure_sealevel;temperature;humidity
5413;BME280;2729;50.056;8.678;2023-06-14T00:00:59;99915.09;;;19.16;62.93
5413;BME280;2729;50.056;8.678;2023-06-14T00:03:24;99926.59;;;19.03;62.70
5413;BME280;2729;50.056;8.678;2023-06-14T00:05:51;99925.38;;;18.94;63.04
5413;BME280;2729;50.056;8.678;2023-06-14T00:08:17;99928.28;;;18.77;64.64
5413;BME280;2729;50.056;8.678;2023-06-14T00:10:44;99927.25;;;18.65;65.11
5413;BME280;2729;50.056;8.678;2023-06-14T00:13:11;99927.22;;;18.79;66.14
5413;BME280;2729;50.056;8.678;2023-06-14T00:15:37;99927.63;;;18.59;65.80
5413;BME280;2729;50.056;8.678;2023-06-14T00:18:04;99931.78;;;18.63;66.23
5413;BME280;2729;50.056;8.678;2023-06-14T00:20:31;99922.63;;;18.54;67.13
5413;BME280;2729;50.056;8.678;2023-06-14T00:22:59;99927.25;;;18.51;67.70
5413;BME280;2729;50.056;8.678;2023-06-14T00:25:25;99924.50;;;18.52;67.83
5413;BME280;2729;50.056;8.678;2023-06-14T00:27:52;99936.63;;;18.42;67.92
5413;BME280;2729;50.056;8.678;2023-06-14T00:30:18;99931.31;;;18.42;68.43
5413;BME280;2729;50.056;8.678;2023-06-14T00:32:44;99938.41;;;18.42;68.48
5413;BME280;2729;50.056;8.678;2023-06-14T00:35:11;99929.63;;;18.41;68.10
5413;BME280;2729;50.056;8.678;2023-06-14T00:37:38;99938.41;;;18.42;68.64
5413;BME280;2729;50.056;8.678;2023-06-14T00:40:04;99925.38;;;18.39;69.33
5413;BME280;2729;50.056;8.678;2023-06-14T00:42:30;99934.16;;;18.39;69.28
5413;BME280;2729;50.056;8.678;2023-06-14T00:44:56;99930.66;;;18.39;69.70
5413;BME280;2729;50.056;8.678;2023-06-14T00:47:23;99934.53;;;18.33;70.13
5413;BME280;2729;50.056;8.678;2023-06-14T00:49:50;99927.28;;;18.22;71.41
5413;BME280;2729;50.056;8.678;2023-06-14T00:52:17;99927.84;;;18.27;71.39
5413;BME280;2729;50.056;8.678;2023-06-14T00:54:44;99928.69;;;18.28;71.35
5413;BME280;2729;50.056;8.678;2023-06-14T00:57:11;99930.97;;;18.34;70.85
5413;BME280;2729;50.056;8.678;2023-06-14T00:59:42;99932.66;;;18.35;70.42
5413;BME280;2729;50.056;8.678;2023-06-14T01:02:09;99927.94;;;18.40;70.85
5413;BME280;2729;50.056;8.678;2023-06-14T01:04:37;99928.97;;;18.23;70.47
5413;BME280;2729;50.056;8.678;2023-06-14T01:07:11;99937.66;;;18.25;70.43
5413;BME280;2729;50.056;8.678;2023-06-14T01:09:57;99928.97;;;18.38;70.89
5413;BME280;2729;50.056;8.678;2023-06-14T01:12:43;99929.91;;;18.37;71.68
5413;BME280;2729;50.056;8.678;2023-06-14T01:15:12;99931.63;;;18.38;71.46
5413;BME280;2729;50.056;8.678;2023-06-14T01:17:39;99939.28;;;18.28;70.62
5413;BME280;2729;50.056;8.678;2023-06-14T01:20:12;99929.19;;;18.20;70.16
5413;BME280;2729;50.056;8.678;2023-06-14T01:22:53;99934.06;;;18.26;70.73
5413;BME280;2729;50.056;8.678;2023-06-14T01:25:20;99931.34;;;18.28;68.98
5413;BME280;2729;50.056;8.678;2023-06-14T01:27:55;99931.53;;;18.25;70.77
5413;BME280;2729;50.056;8.678;2023-06-14T01:30:25;99932.00;;;18.31;70.87
5413;BME280;2729;50.056;8.678;2023-06-14T01:32:53;99933.41;;;18.37;70.79
5413;BME280;2729;50.056;8.678;2023-06-14T01:35:20;99934.81;;;18.43;66.47
5413;BME280;2729;50.056;8.678;2023-06-14T01:37:47;99926.03;;;18.42;66.16
5413;BME280;2729;50.056;8.678;2023-06-14T01:40:15;99932.34;;;18.54;68.10
5413;BME280;2729;50.056;8.678;2023-06-14T01:42:42;99932.53;;;18.51;65.33
5413;BME280;2729;50.056;8.678;2023-06-14T01:45:10;99931.78;;;18.49;70.02
5413;BME280;2729;50.056;8.678;2023-06-14T01:47:37;99929.34;;;18.46;70.35
5413;BME280;2729;50.056;8.678;2023-06-14T01:50:03;99933.22;;;18.40;70.76
5413;BME280;2729;50.056;8.678;2023-06-14T01:52:30;99935.38;;;18.48;69.06
5413;BME280;2729;50.056;8.678;2023-06-14T01:54:56;99932.19;;;18.43;70.29
5413;BME280;2729;50.056;8.678;2023-06-14T01:57:24;99938.50;;;18.40;68.96
5413;BME280;2729;50.056;8.678;2023-06-14T01:59:50;99932.75;;;18.48;70.50
5413;BME280;2729;50.056;8.678;2023-06-14T02:02:16;99928.59;;;18.44;70.79
5413;BME280;2729;50.056;8.678;2023-06-14T02:04:44;99937.19;;;18.33;70.26
5413;BME280;2729;50.056;8.678;2023-06-14T02:07:12;99936.06;;;18.37;71.33
5413;BME280;2729;50.056;8.678;2023-06-14T02:09:41;99936.06;;;18.37;69.69
5413;BME280;2729;50.056;8.678;2023-06-14T02:12:08;99931.91;;;18.33;70.54
5413;BME280;2729;50.056;8.678;2023-06-14T02:14:34;99926.34;;;18.23;69.84
5413;BME280;2729;50.056;8.678;2023-06-14T02:17:00;99934.47;;;18.20;69.94
5413;BME280;2729;50.056;8.678;2023-06-14T02:19:26;99932.91;;;18.16;69.11
5413;BME280;2729;50.056;8.678;2023-06-14T02:21:52;99937.66;;;18.25;68.94
5413;BME280;2729;50.056;8.678;2023-06-14T02:24:18;99939.06;;;18.17;71.80
5413;BME280;2729;50.056;8.678;2023-06-14T02:26:44;99935.38;;;18.19;70.07
5413;BME280;2729;50.056;8.678;2023-06-14T02:29:14;99940.84;;;18.16;70.46
5413;BME280;2729;50.056;8.678;2023-06-14T02:31:40;99938.19;;;18.16;70.71
5413;BME280;2729;50.056;8.678;2023-06-14T02:34:06;99938.66;;;18.09;70.10
5413;BME280;2729;50.056;8.678;2023-06-14T02:36:35;99948.94;;;17.99;70.11
5413;BME280;2729;50.056;8.678;2023-06-14T02:39:02;99944.13;;;17.91;70.47
5413;BME280;2729;50.056;8.678;2023-06-14T02:41:31;99944.03;;;17.93;70.46
5413;BME280;2729;50.056;8.678;2023-06-14T02:43:57;99938.38;;;17.99;71.47
5413;BME280;2729;50.056;8.678;2023-06-14T02:46:24;99943.56;;;18.00;72.11
5413;BME280;2729;50.056;8.678;2023-06-14T02:48:50;99937.16;;;18.05;72.20
5413;BME280;2729;50.056;8.678;2023-06-14T02:51:16;99937.63;;;17.97;72.79
5413;BME280;2729;50.056;8.678;2023-06-14T02:53:42;99945.34;;;17.86;73.06
5413;BME280;2729;50.056;8.678;2023-06-14T02:56:10;99944.09;;;17.77;74.00
5413;BME280;2729;50.056;8.678;2023-06-14T02:58:38;99947.03;;;17.73;74.75
5413;BME280;2729;50.056;8.678;2023-06-14T03:01:07;99955.88;;;17.72;73.90
5413;BME280;2729;50.056;8.678;2023-06-14T03:03:34;99961.94;;;17.74;74.90
5413;BME280;2729;50.056;8.678;2023-06-14T03:06:00;99962.03;;;17.56;74.84
5413;BME280;2729;50.056;8.678;2023-06-14T03:08:31;99967.72;;;17.64;73.47
5413;BME280;2729;50.056;8.678;2023-06-14T03:11:06;99969.00;;;17.57;73.88
5413;BME280;2729;50.056;8.678;2023-06-14T03:13:35;99961.53;;;17.50;74.58
5413;BME280;2729;50.056;8.678;2023-06-14T03:16:02;99964.28;;;17.48;74.94
5413;BME280;2729;50.056;8.678;2023-06-14T03:18:30;99970.97;;;17.54;74.46
5413;BME280;2729;50.056;8.678;2023-06-14T03:20:57;99974.78;;;17.64;74.13
5413;BME280;2729;50.056;8.678;2023-06-14T03:23:24;99973.16;;;17.61;73.61
5413;BME280;2729;50.056;8.678;2023-06-14T03:25:51;99984.34;;;17.66;73.27
5413;BME280;2729;50.056;8.678;2023-06-14T03:28:17;99980.16;;;17.62;73.18
5413;BME280;2729;50.056;8.678;2023-06-14T03:30:43;99983.56;;;17.64;72.72
5413;BME280;2729;50.056;8.678;2023-06-14T03:33:09;99987.28;;;17.76;72.22
5413;BME280;2729;50.056;8.678;2023-06-14T03:35:38;99981.34;;;17.73;71.60
5413;BME280;2729;50.056;8.678;2023-06-14T03:38:04;99993.34;;;17.62;71.42
5413;BME280;2729;50.056;8.678;2023-06-14T03:40:30;99992.94;;;17.54;71.55
5413;BME280;2729;50.056;8.678;2023-06-14T03:43:01;100000.00;;;17.70;71.23
5413;BME280;2729;50.056;8.678;2023-06-14T03:45:27;99999.25;;;17.67;71.19
5413;BME280;2729;50.056;8.678;2023-06-14T03:47:54;99999.91;;;17.71;71.22
5413;BME280;2729;50.056;8.678;2023-06-14T03:50:20;100004.06;;;17.75;71.04
5413;BME280;2729;50.056;8.678;2023-06-14T03:52:48;100005.00;;;17.74;71.97
5413;BME280;2729;50.056;8.678;2023-06-14T03:55:14;100005.19;;;17.71;72.09
5413;BME280;2729;50.056;8.678;2023-06-14T03:57:42;100008.25;;;17.63;73.10
5413;BME280;2729;50.056;8.678;2023-06-14T04:00:11;100015.75;;;17.55;72.71
5413;BME280;2729;50.056;8.678;2023-06-14T04:02:44;100016.25;;;17.78;72.53
5413;BME280;2729;50.056;8.678;2023-06-14T04:05:10;100019.50;;;17.51;72.87
5413;BME280;2729;50.056;8.678;2023-06-14T04:07:40;100019.34;;;17.54;74.08
5413;BME280;2729;50.056;8.678;2023-06-14T04:10:13;100023.84;;;17.68;73.12
5413;BME280;2729;50.056;8.678;2023-06-14T04:12:39;100032.94;;;17.62;72.96
5413;BME280;2729;50.056;8.678;2023-06-14T04:15:06;100036.19;;;17.67;73.76
5413;BME280;2729;50.056;8.678;2023-06-14T04:17:34;100032.44;;;17.72;72.48
5413;BME280;2729;50.056;8.678;2023-06-14T04:20:01;100031.81;;;17.82;72.07
5413;BME280;2729;50.056;8.678;2023-06-14T04:22:29;100032.72;;;17.67;73.28
5413;BME280;2729;50.056;8.678;2023-06-14T04:24:57;100039.91;;;17.63;72.99
5413;BME280;2729;50.056;8.678;2023-06-14T04:27:26;100032.19;;;17.60;73.40
5413;BME280;2729;50.056;8.678;2023-06-14T04:29:53;100036.19;;;17.67;74.35
5413;BME280;2729;50.056;8.678;2023-06-14T04:32:25;100048.09;;;17.75;73.28
5413;BME280;2729;50.056;8.678;2023-06-14T04:34:56;100049.34;;;17.83;72.82
5413;BME280;2729;50.056;8.678;2023-06-14T04:37:22;100055.44;;;17.70;73.85
5413;BME280;2729;50.056;8.678;2023-06-14T04:39:48;100048.91;;;17.91;74.99
5413;BME280;2729;50.056;8.678;2023-06-14T04:42:16;100052.84;;;17.84;72.78
5413;BME280;2729;50.056;8.678;2023-06-14T04:44:43;100052.47;;;17.90;74.73
5413;BME280;2729;50.056;8.678;2023-06-14T04:47:10;100053.03;;;17.81;73.95
5413;BME280;2729;50.056;8.678;2023-06-14T04:49:38;100050.03;;;17.87;74.09
5413;BME280;2729;50.056;8.678;2023-06-14T04:52:05;100051.53;;;17.91;75.49
5413;BME280;2729;50.056;8.678;2023-06-14T04:54:36;100058.34;;;17.95;74.70
5413;BME280;2729;50.056;8.678;2023-06-14T04:57:04;100057.50;;;17.94;74.57
5413;BME280;2729;50.056;8.678;2023-06-14T04:59:31;100056.09;;;18.03;73.39
5413;BME280;2729;50.056;8.678;2023-06-14T05:01:59;100060.09;;;18.10;73.01
5413;BME280;2729;50.056;8.678;2023-06-14T05:04:26;100057.06;;;18.16;72.93
5413;BME280;2729;50.056;8.678;2023-06-14T05:06:53;100067.22;;;18.24;74.15
5413;BME280;2729;50.056;8.678;2023-06-14T05:09:21;100060.66;;;18.15;73.16
5413;BME280;2729;50.056;8.678;2023-06-14T05:11:47;100064.28;;;18.28;72.69
5413;BME280;2729;50.056;8.678;2023-06-14T05:14:14;100072.91;;;18.32;71.73
5413;BME280;2729;50.056;8.678;2023-06-14T05:16:40;100070.03;;;18.21;73.31
5413;BME280;2729;50.056;8.678;2023-06-14T05:19:06;100074.38;;;18.66;71.63
5413;BME280;2729;50.056;8.678;2023-06-14T05:21:32;100072.28;;;18.71;70.79
5413;BME280;2729;50.056;8.678;2023-06-14T05:24:01;100070.03;;;18.65;71.25
5413;BME280;2729;50.056;8.678;2023-06-14T05:26:27;100071.88;;;19.06;68.71
5413;BME280;2729;50.056;8.678;2023-06-14T05:28:58;100075.97;;;18.69;70.59
5413;BME280;2729;50.056;8.678;2023-06-14T05:31:27;100068.31;;;18.78;71.52
5413;BME280;2729;50.056;8.678;2023-06-14T05:33:54;100079.94;;;18.76;70.27
5413;BME280;2729;50.056;8.678;2023-06-14T05:36:20;100079.59;;;19.91;68.44
5413;BME280;2729;50.056;8.678;2023-06-14T05:38:46;100077.28;;;18.90;69.01
5413;BME280;2729;50.056;8.678;2023-06-14T05:41:12;100078.16;;;19.32;67.57
5413;BME280;2729;50.056;8.678;2023-06-14T05:43:38;100078.31;;;19.02;69.26
5413;BME280;2729;50.056;8.678;2023-06-14T05:46:04;100083.22;;;18.93;70.92
5413;BME280;2729;50.056;8.678;2023-06-14T05:48:31;100093.91;;;19.06;71.43
5413;BME280;2729;50.056;8.678;2023-06-14T05:50:57;100095.31;;;19.12;70.13
5413;BME280;2729;50.056;8.678;2023-06-14T05:53:24;100093.38;;;19.28;71.07
5413;BME280;2729;50.056;8.678;2023-06-14T05:55:53;100094.50;;;19.38;70.17
5413;BME280;2729;50.056;8.678;2023-06-14T05:58:21;100093.25;;;19.03;71.13
5413;BME280;2729;50.056;8.678;2023-06-14T06:00:47;100097.34;;;19.35;70.51
5413;BME280;2729;50.056;8.678;2023-06-14T06:03:13;100097.50;;;19.61;68.74
5413;BME280;2729;50.056;8.678;2023-06-14T06:05:39;100102.28;;;19.68;69.72
5413;BME280;2729;50.056;8.678;2023-06-14T06:08:05;100114.22;;;19.47;70.37
5413;BME280;2729;50.056;8.678;2023-06-14T06:10:31;100108.63;;;19.66;69.47
5413;BME280;2729;50.056;8.678;2023-06-14T06:12:57;100112.47;;;19.74;68.57
5413;BME280;2729;50.056;8.678;2023-06-14T06:15:23;100115.81;;;19.90;67.29
5413;BME280;2729;50.056;8.678;2023-06-14T06:17:50;100124.84;;;19.33;69.61
5413;BME280;2729;50.056;8.678;2023-06-14T06:20:16;100113.09;;;19.65;68.88
5413;BME280;2729;50.056;8.678;2023-06-14T06:22:43;100111.28;;;19.66;69.70
5413;BME280;2729;50.056;8.678;2023-06-14T06:25:09;100118.22;;;19.81;68.80
5413;BME280;2729;50.056;8.678;2023-06-14T06:27:35;100119.56;;;19.74;69.41
5413;BME280;2729;50.056;8.678;2023-06-14T06:30:03;100114.81;;;19.79;69.15
5413;BME280;2729;50.056;8.678;2023-06-14T06:32:29;100123.59;;;20.06;68.85
5413;BME280;2729;50.056;8.678;2023-06-14T06:34:55;100121.50;;;20.11;66.99
5413;BME280;2729;50.056;8.678;2023-06-14T06:37:21;100131.84;;;20.02;67.37
5413;BME280;2729;50.056;8.678;2023-06-14T06:39:47;100132.16;;;19.70;68.85
5413;BME280;2729;50.056;8.678;2023-06-14T06:42:13;100131.97;;;20.00;68.29
5413;BME280;2729;50.056;8.678;2023-06-14T06:44:41;100128.22;;;19.90;66.25
5413;BME280;2729;50.056;8.678;2023-06-14T06:47:07;100130.59;;;20.07;66.93
5413;BME280;2729;50.056;8.678;2023-06-14T06:49:35;100135.22;;;19.91;67.96
5413;BME280;2729;50.056;8.678;2023-06-14T06:52:06;100140.97;;;19.98;67.71
5413;BME280;2729;50.056;8.678;2023-06-14T06:54:33;100136.97;;;20.17;67.83
5413;BME280;2729;50.056;8.678;2023-06-14T06:56:59;100138.28;;;20.37;67.94
5413;BME280;2729;50.056;8.678;2023-06-14T06:59:25;100139.19;;;20.50;66.68
5413;BME280;2729;50.056;8.678;2023-06-14T07:01:52;100132.72;;;20.80;65.00
5413;BME280;2729;50.056;8.678;2023-06-14T07:04:18;100139.03;;;20.92;65.27
5413;BME280;2729;50.056;8.678;2023-06-14T07:06:46;100133.47;;;20.69;64.91
5413;BME280;2729;50.056;8.678;2023-06-14T07:09:13;100131.34;;;21.25;63.55
5413;BME280;2729;50.056;8.678;2023-06-14T07:11:40;100133.94;;;20.89;65.12
5413;BME280;2729;50.056;8.678;2023-06-14T07:14:07;100135.81;;;20.74;62.55
5413;BME280;2729;50.056;8.678;2023-06-14T07:16:33;100142.19;;;21.09;60.41
5413;BME280;2729;50.056;8.678;2023-06-14T07:18:59;100136.66;;;21.12;59.31
5413;BME280;2729;50.056;8.678;2023-06-14T07:21:26;100133.50;;;20.95;59.29
5413;BME280;2729;50.056;8.678;2023-06-14T07:23:53;100127.75;;;21.26;61.04
5413;BME280;2729;50.056;8.678;2023-06-14T07:26:19;100126.81;;;21.51;60.27
5413;BME280;2729;50.056;8.678;2023-06-14T07:28:46;100144.09;;;21.69;56.69
5413;BME280;2729;50.056;8.678;2023-06-14T07:31:15;100136.44;;;20.77;57.67
5413;BME280;2729;50.056;8.678;2023-06-14T07:33:42;100144.78;;;21.47;56.44
5413;BME280;2729;50.056;8.678;2023-06-14T07:36:08;100144.19;;;21.68;55.91
5413;BME280;2729;50.056;8.678;2023-06-14T07:38:34;100139.22;;;21.63;56.76
5413;BME280;2729;50.056;8.678;2023-06-14T07:41:00;100145.09;;;21.79;56.00
5413;BME280;2729;50.056;8.678;2023-06-14T07:43:26;100136.00;;;21.95;55.76
5413;BME280;2729;50.056;8.678;2023-06-14T07:45:52;100130.47;;;21.98;55.40
5413;BME280;2729;50.056;8.678;2023-06-14T07:48:18;100131.75;;;21.92;56.05
5413;BME280;2729;50.056;8.678;2023-06-14T07:50:44;100128.03;;;21.95;55.40
5413;BME280;2729;50.056;8.678;2023-06-14T07:53:11;100131.41;;;21.73;55.66
5413;BME280;2729;50.056;8.678;2023-06-14T07:55:37;100125.91;;;22.35;55.26
5413;BME280;2729;50.056;8.678;2023-06-14T07:58:03;100136.13;;;21.93;55.29
5413;BME280;2729;50.056;8.678;2023-06-14T08:00:29;100135.53;;;21.53;57.51
5413;BME280;2729;50.056;8.678;2023-06-14T08:02:57;100132.25;;;21.49;57.65
5413;BME280;2729;50.056;8.678;2023-06-14T08:05:28;100137.06;;;21.92;56.74
5413;BME280;2729;50.056;8.678;2023-06-14T08:07:54;100136.59;;;22.11;54.31
5413;BME280;2729;50.056;8.678;2023-06-14T08:10:21;100139.91;;;21.78;54.14
5413;BME280;2729;50.056;8.678;2023-06-14T08:12:47;100155.34;;;21.73;55.06
5413;BME280;2729;50.056;8.678;2023-06-14T08:15:17;100146.47;;;21.85;54.78
5413;BME280;2729;50.056;8.678;2023-06-14T08:17:43;100141.47;;;22.28;53.61
5413;BME280;2729;50.056;8.678;2023-06-14T08:20:10;100154.31;;;22.34;52.71
5413;BME280;2729;50.056;8.678;2023-06-14T08:22:36;100138.25;;;22.36;52.50
5413;BME280;2729;50.056;8.678;2023-06-14T08:25:03;100142.06;;;22.78;52.64
5413;BME280;2729;50.056;8.678;2023-06-14T08:27:30;100142.84;;;22.80;51.87
5413;BME280;2729;50.056;8.678;2023-06-14T08:29:56;100145.13;;;22.38;53.17
5413;BME280;2729;50.056;8.678;2023-06-14T08:32:22;100148.84;;;22.25;53.10
5413;BME280;2729;50.056;8.678;2023-06-14T08:34:48;100145.13;;;22.03;53.59
5413;BME280;2729;50.056;8.678;2023-06-14T08:37:14;100147.22;;;22.46;52.18
5413;BME280;2729;50.056;8.678;2023-06-14T08:39:40;100134.41;;;22.51;52.57
5413;BME280;2729;50.056;8.678;2023-06-14T08:42:08;100146.41;;;22.68;52.61
5413;BME280;2729;50.056;8.678;2023-06-14T08:44:34;100142.25;;;23.10;51.75
5413;BME280;2729;50.056;8.678;2023-06-14T08:47:00;100144.91;;;22.99;51.80
5413;BME280;2729;50.056;8.678;2023-06-14T08:49:27;100138.13;;;22.95;51.92
5413;BME280;2729;50.056;8.678;2023-06-14T08:51:57;100141.38;;;23.21;51.89
5413;BME280;2729;50.056;8.678;2023-06-14T08:54:25;100143.94;;;23.56;50.68
5413;BME280;2729;50.056;8.678;2023-06-14T08:56:53;100145.22;;;24.16;48.24
5413;BME280;2729;50.056;8.678;2023-06-14T08:59:26;100137.19;;;23.95;49.64
5413;BME280;2729;50.056;8.678;2023-06-14T09:01:53;100148.53;;;23.20;50.62
5413;BME280;2729;50.056;8.678;2023-06-14T09:04:21;100150.56;;;23.39;50.01
5413;BME280;2729;50.056;8.678;2023-06-14T09:06:47;100145.00;;;23.31;49.26
5413;BME280;2729;50.056;8.678;2023-06-14T09:09:22;100154.34;;;23.70;48.41
5413;BME280;2729;50.056;8.678;2023-06-14T09:11:52;100158.34;;;23.20;47.41
5413;BME280;2729;50.056;8.678;2023-06-14T09:14:18;100155.75;;;23.85;48.99
5413;BME280;2729;50.056;8.678;2023-06-14T09:16:45;100146.63;;;23.56;48.38
5413;BME280;2729;50.056;8.678;2023-06-14T09:19:22;100150.13;;;23.45;47.99
5413;BME280;2729;50.056;8.678;2023-06-14T09:21:49;100156.03;;;23.71;48.79
5413;BME280;2729;50.056;8.678;2023-06-14T09:24:15;100145.75;;;23.33;48.49
5413;BME280;2729;50.056;8.678;2023-06-14T09:26:41;100151.69;;;23.48;46.91
5413;BME280;2729;50.056;8.678;2023-06-14T09:29:09;100154.25;;;23.60;45.70
5413;BME280;2729;50.056;8.678;2023-06-14T09:31:35;100156.53;;;23.65;45.30
5413;BME280;2729;50.056;8.678;2023-06-14T09:34:02;100151.44;;;23.39;46.28
5413;BME280;2729;50.056;8.678;2023-06-14T09:36:28;100158.72;;;23.60;47.56
5413;BME280;2729;50.056;8.678;2023-06-14T09:38:58;100161.84;;;23.54;48.28
5413;BME280;2729;50.056;8.678;2023-06-14T09:41:36;100155.50;;;23.88;48.47
5413;BME280;2729;50.056;8.678;2023-06-14T09:44:07;100151.56;;;24.03;48.38
5413;BME280;2729;50.056;8.678;2023-06-14T09:46:34;100165.47;;;23.75;47.14
5413;BME280;2729;50.056;8.678;2023-06-14T09:49:01;100161.25;;;23.72;46.17
5413;BME280;2729;50.056;8.678;2023-06-14T09:51:28;100158.94;;;24.11;47.36
5413;BME280;2729;50.056;8.678;2023-06-14T09:54:00;100161.69;;;24.21;46.81
5413;BME280;2729;50.056;8.678;2023-06-14T09:56:28;100155.94;;;24.04;46.94
5413;BME280;2729;50.056;8.678;2023-06-14T09:58:58;100151.22;;;23.97;45.55
5413;BME280;2729;50.056;8.678;2023-06-14T10:01:26;100146.09;;;24.05;45.42
5413;BME280;2729;50.056;8.678;2023-06-14T10:04:04;100155.88;;;24.16;46.17
5413;BME280;2729;50.056;8.678;2023-06-14T10:06:31;100154.06;;;23.84;45.77
5413;BME280;2729;50.056;8.678;2023-06-14T10:09:00;100159.00;;;24.21;46.08
5413;BME280;2729;50.056;8.678;2023-06-14T10:11:27;100155.38;;;24.22;45.48
5413;BME280;2729;50.056;8.678;2023-06-14T10:13:57;100154.34;;;23.70;45.88
5413;BME280;2729;50.056;8.678;2023-06-14T10:19:25;100141.63;;;24.05;44.95
5413;BME280;2729;50.056;8.678;2023-06-14T10:22:06;100147.50;;;24.20;44.87
5413;BME280;2729;50.056;8.678;2023-06-14T10:24:38;100141.88;;;24.55;44.73
5413;BME280;2729;50.056;8.678;2023-06-14T10:27:07;100149.94;;;24.44;44.76
5413;BME280;2729;50.056;8.678;2023-06-14T10:32:21;100154.91;;;24.49;43.93
5413;BME280;2729;50.056;8.678;2023-06-14T10:35:05;100156.50;;;24.82;45.20
5413;BME280;2729;50.056;8.678;2023-06-14T10:37:34;100149.63;;;24.58;43.53
5413;BME280;2729;50.056;8.678;2023-06-14T10:40:02;100150.53;;;24.68;44.36
5413;BME280;2729;50.056;8.678;2023-06-14T10:42:32;100152.72;;;23.90;44.83
5413;BME280;2729;50.056;8.678;2023-06-14T10:44:59;100150.28;;;24.19;46.51
5413;BME280;2729;50.056;8.678;2023-06-14T10:47:31;100136.41;;;24.36;45.27
5413;BME280;2729;50.056;8.678;2023-06-14T10:52:33;100139.94;;;24.04;45.66
5413;BME280;2729;50.056;8.678;2023-06-14T10:58:34;100149.88;;;24.55;45.31
5413;BME280;2729;50.056;8.678;2023-06-14T11:01:00;100140.34;;;25.04;43.81
5413;BME280;2729;50.056;8.678;2023-06-14T11:03:50;100143.09;;;24.72;44.30
5413;BME280;2729;50.056;8.678;2023-06-14T11:06:22;100156.25;;;24.43;43.55
5413;BME280;2729;50.056;8.678;2023-06-14T11:11:51;100152.41;;;24.98;43.11
5413;BME280;2729;50.056;8.678;2023-06-14T11:14:17;100154.72;;;24.61;42.16
5413;BME280;2729;50.056;8.678;2023-06-14T11:16:48;100149.47;;;25.02;42.99
5413;BME280;2729;50.056;8.678;2023-06-14T11:19:14;100138.78;;;25.02;42.47
5413;BME280;2729;50.056;8.678;2023-06-14T11:21:47;100146.81;;;24.81;43.09
5413;BME280;2729;50.056;8.678;2023-06-14T11:24:13;100147.28;;;25.16;41.96
5413;BME280;2729;50.056;8.678;2023-06-14T11:26:40;100135.00;;;25.44;43.40
5413;BME280;2729;50.056;8.678;2023-06-14T11:29:06;100149.06;;;25.06;42.45
5413;BME280;2729;50.056;8.678;2023-06-14T11:31:32;100144.13;;;25.32;43.23
5413;BME280;2729;50.056;8.678;2023-06-14T11:33:59;100140.53;;;25.62;42.86
5413;BME280;2729;50.056;8.678;2023-06-14T11:36:33;100141.19;;;25.45;42.56
5413;BME280;2729;50.056;8.678;2023-06-14T11:39:03;100145.16;;;25.10;43.10
5413;BME280;2729;50.056;8.678;2023-06-14T11:41:42;100159.00;;;24.74;78.38
5413;BME280;2729;50.056;8.678;2023-06-14T11:44:09;100151.91;;;24.42;67.42
5413;BME280;2729;50.056;8.678;2023-06-14T11:46:35;100151.00;;;24.53;56.60
5413;BME280;2729;50.056;8.678;2023-06-14T11:49:02;100146.28;;;23.92;70.20
5413;BME280;2729;50.056;8.678;2023-06-14T11:51:36;100143.69;;;23.59;58.87
5413;BME280;2729;50.056;8.678;2023-06-14T11:54:05;100149.66;;;23.94;50.80
5413;BME280;2729;50.056;8.678;2023-06-14T11:56:31;100146.94;;;24.05;48.99
5413;BME280;2729;50.056;8.678;2023-06-14T11:58:59;100138.78;;;24.18;47.28
5413;BME280;2729;50.056;8.678;2023-06-14T12:01:25;100149.81;;;24.14;46.35
5413;BME280;2729;50.056;8.678;2023-06-14T12:03:53;100143.91;;;24.10;49.37
5413;BME280;2729;50.056;8.678;2023-06-14T12:06:28;100146.44;;;24.44;47.01
5413;BME280;2729;50.056;8.678;2023-06-14T12:08:58;100148.56;;;24.71;46.10
5413;BME280;2729;50.056;8.678;2023-06-14T12:11:27;100146.16;;;24.88;45.21
5413;BME280;2729;50.056;8.678;2023-06-14T12:13:54;100146.72;;;25.13;47.42
5413;BME280;2729;50.056;8.678;2023-06-14T12:16:19;100142.44;;;25.00;43.90
5413;BME280;2729;50.056;8.678;2023-06-14T12:18:46;100145.31;;;24.88;44.53
5413;BME280;2729;50.056;8.678;2023-06-14T12:21:12;100144.47;;;25.18;44.81
5413;BME280;2729;50.056;8.678;2023-06-14T12:26:11;100142.81;;;25.67;44.68
5413;BME280;2729;50.056;8.678;2023-06-14T12:28:39;100144.91;;;25.63;43.55
5413;BME280;2729;50.056;8.678;2023-06-14T12:31:05;100146.66;;;25.33;42.03
5413;BME280;2729;50.056;8.678;2023-06-14T12:33:31;100141.09;;;25.56;41.46
5413;BME280;2729;50.056;8.678;2023-06-14T12:35:57;100145.16;;;25.60;41.60
5413;BME280;2729;50.056;8.678;2023-06-14T12:38:24;100148.41;;;25.54;42.33
5413;BME280;2729;50.056;8.678;2023-06-14T12:40:51;100138.78;;;25.42;41.25
5413;BME280;2729;50.056;8.678;2023-06-14T12:43:18;100146.66;;;25.93;41.30
5413;BME280;2729;50.056;8.678;2023-06-14T12:45:45;100143.31;;;26.01;41.52
5413;BME280;2729;50.056;8.678;2023-06-14T12:48:11;100145.16;;;26.39;40.36
5413;BME280;2729;50.056;8.678;2023-06-14T12:50:37;100140.94;;;26.46;41.37
5413;BME280;2729;50.056;8.678;2023-06-14T12:53:03;100138.66;;;26.51;40.96
5413;BME280;2729;50.056;8.678;2023-06-14T12:55:28;100133.75;;;26.17;42.55
5413;BME280;2729;50.056;8.678;2023-06-14T12:57:56;100136.56;;;26.25;40.85
5413;BME280;2729;50.056;8.678;2023-06-14T13:00:22;100137.41;;;26.07;40.10
5413;BME280;2729;50.056;8.678;2023-06-14T13:02:48;100141.97;;;25.66;40.73
5413;BME280;2729;50.056;8.678;2023-06-14T13:05:14;100147.34;;;25.85;42.15
5413;BME280;2729;50.056;8.678;2023-06-14T13:07:40;100152.13;;;25.82;40.90
5413;BME280;2729;50.056;8.678;2023-06-14T13:10:06;100151.72;;;25.77;39.26
5413;BME280;2729;50.056;8.678;2023-06-14T13:12:32;100150.16;;;25.74;38.37
5413;BME280;2729;50.056;8.678;2023-06-14T13:14:58;100144.03;;;26.22;40.10
5413;BME280;2729;50.056;8.678;2023-06-14T13:17:24;100140.94;;;26.46;38.18
5413;BME280;2729;50.056;8.678;2023-06-14T13:19:50;100141.16;;;26.72;37.29
5413;BME280;2729;50.056;8.678;2023-06-14T13:22:16;100138.09;;;26.57;40.99
5413;BME280;2729;50.056;8.678;2023-06-14T13:24:42;100156.41;;;26.23;38.13
5413;BME280;2729;50.056;8.678;2023-06-14T13:27:07;100156.91;;;25.78;38.55
5413;BME280;2729;50.056;8.678;2023-06-14T13:29:34;100151.00;;;25.84;40.47
5413;BME280;2729;50.056;8.678;2023-06-14T13:32:02;100148.38;;;26.04;41.66
5413;BME280;2729;50.056;8.678;2023-06-14T13:34:28;100148.31;;;25.65;39.89